Terminal Aerodrome Forecast
Issued by NWS Melbourne, FL

Home | Current Version | Previous Version | Text Only | Print | Product List | Glossary On
Versions: 1 2 3 4 5 6 7 8 9 10 11 12 13 14 15
000
FTUS42 KMLB 231459 AAB
TAFDAB
TAF AMD
KDAB 231459Z 2315/2412 21012G18KT P6SM FEW016 SCT024 SCT045
     FM231900 22013G20KT P6SM VCTS SCT040CB BKN250
     FM232300 23009KT P6SM SCT040 BKN250=

USA.gov is the U.S. government's official web portal to all federal, state and local government web resources and services.